createdAt,value
2018-02-22T00:00:58.637Z,3.8
2018-02-22T00:01:58.519Z,3.6
2018-02-22T00:02:58.522Z,3.6
2018-02-22T00:03:59.427Z,3.6
2018-02-22T00:04:58.522Z,4.4
2018-02-22T00:05:58.665Z,4.4
2018-02-22T00:06:58.691Z,3.3
2018-02-22T00:07:58.713Z,3.3
2018-02-22T00:08:58.722Z,3.3
2018-02-22T00:09:58.824Z,0.8
2018-02-22T00:10:58.754Z,0.8
2018-02-22T00:11:58.660Z,3.6
2018-02-22T00:15:58.478Z,3.6
2018-02-22T00:16:58.690Z,3.6
2018-02-22T00:17:58.700Z,0.2
2018-02-22T00:18:58.713Z,0.2
2018-02-22T00:19:58.679Z,1.1
2018-02-22T00:20:58.539Z,1.1
2018-02-22T00:21:58.854Z,1.1
2018-02-22T00:22:58.695Z,0.8
2018-02-22T00:23:58.619Z,0.8
2018-02-22T00:24:58.734Z,1.3
2018-02-22T00:25:58.697Z,1.3
2018-02-22T00:26:58.775Z,1.3
2018-02-22T00:27:58.735Z,1.6
2018-02-22T00:28:58.743Z,1.6
2018-02-22T00:29:58.555Z,2.7
2018-02-22T00:30:58.618Z,2.7
2018-02-22T00:32:58.605Z,3.3
2018-02-22T00:33:58.754Z,3.3
2018-02-22T00:34:58.632Z,2.5
2018-02-22T00:35:58.670Z,2.5
2018-02-22T00:36:59.161Z,2.5
2018-02-22T00:37:58.560Z,2.7
2018-02-22T00:38:59.745Z,2.7
2018-02-22T00:39:58.899Z,0.5
2018-02-22T00:40:58.798Z,0.5
2018-02-22T00:42:58.808Z,0.2
2018-02-22T00:43:58.737Z,0.2
2018-02-22T00:44:58.677Z,0.0
2018-02-22T00:45:58.544Z,0.0
2018-02-22T00:46:58.782Z,0.0
2018-02-22T00:47:58.597Z,0.0
2018-02-22T00:48:58.591Z,0.0
2018-02-22T00:49:58.588Z,0.0
2018-02-22T00:50:58.604Z,1.6
2018-02-22T00:51:58.829Z,1.6
2018-02-22T00:52:59.994Z,3.3
2018-02-22T00:53:58.569Z,3.3
2018-02-22T00:54:58.640Z,3.3
2018-02-22T00:55:58.620Z,3.3
2018-02-22T00:56:58.664Z,3.3
2018-02-22T00:57:58.927Z,1.6
2018-02-22T00:58:58.614Z,1.6
2018-02-22T00:59:58.624Z,1.6
2018-02-22T01:00:58.955Z,0.0
2018-02-22T01:01:58.587Z,0.0
2018-02-22T01:02:58.861Z,2.2
2018-02-22T01:03:58.802Z,2.2
2018-02-22T01:04:59.198Z,2.2
2018-02-22T01:05:58.754Z,0.0
2018-02-22T01:06:58.863Z,0.0
2018-02-22T01:07:58.613Z,0.0
2018-02-22T01:08:58.709Z,0.0
2018-02-22T01:09:58.618Z,0.0
2018-02-22T01:10:58.669Z,1.3
2018-02-22T01:11:58.838Z,1.3
2018-02-22T01:13:58.839Z,0.2
2018-02-22T01:14:58.761Z,0.2
2018-02-22T01:15:58.984Z,0.8
2018-02-22T01:16:58.711Z,0.8
2018-02-22T01:17:58.845Z,0.8
2018-02-22T01:18:59.349Z,0.2
2018-02-22T01:19:58.827Z,0.2
2018-02-22T01:20:58.686Z,0.0
2018-02-22T01:21:58.835Z,0.0
2018-02-22T01:22:58.891Z,0.0
2018-02-22T01:23:58.839Z,0.0
2018-02-22T01:24:58.701Z,0.0
2018-02-22T01:25:58.662Z,0.2
2018-02-22T01:26:59.484Z,0.2
2018-02-22T01:27:58.635Z,0.2
2018-02-22T01:29:58.809Z,1.3
2018-02-22T01:30:58.864Z,1.9
2018-02-22T01:31:58.709Z,1.9
2018-02-22T01:32:58.872Z,1.9
2018-02-22T01:34:02.480Z,1.9
2018-02-22T01:34:59.140Z,1.9
2018-02-22T01:35:58.890Z,1.9
2018-02-22T01:36:58.864Z,1.9
2018-02-22T01:37:58.964Z,1.9
2018-02-22T01:38:58.871Z,0.8
2018-02-22T01:39:58.816Z,0.8
2018-02-22T01:40:58.687Z,0.8
2018-02-22T01:41:58.876Z,0.8
2018-02-22T01:42:58.730Z,0.8
2018-02-22T01:43:58.850Z,1.9
2018-02-22T01:44:58.754Z,1.9
2018-02-22T01:45:58.847Z,0.0
2018-02-22T01:46:59.377Z,0.0
2018-02-22T01:47:58.737Z,0.0
2018-02-22T01:48:58.733Z,0.0
2018-02-22T01:49:58.833Z,0.0
2018-02-22T01:52:03.315Z,0.0
2018-02-22T01:52:58.790Z,0.0
2018-02-22T01:54:58.738Z,0.0
2018-02-22T01:55:58.893Z,0.0
2018-02-22T01:56:58.896Z,1.6
2018-02-22T01:57:58.682Z,1.6
2018-02-22T01:58:58.906Z,0.0
2018-02-22T01:59:58.916Z,0.0
2018-02-22T02:00:58.702Z,0.0
2018-02-22T02:01:58.897Z,0.5
2018-02-22T02:02:58.910Z,0.5
2018-02-22T02:03:59.436Z,1.3
2018-02-22T02:04:58.746Z,1.3
2018-02-22T02:05:58.922Z,1.3
2018-02-22T02:06:58.875Z,0.5
2018-02-22T02:07:58.686Z,0.5
2018-02-22T02:08:58.736Z,0.0
2018-02-22T02:09:58.904Z,0.0
2018-02-22T02:10:58.712Z,0.0
2018-02-22T02:11:58.868Z,0.0
2018-02-22T02:12:58.708Z,0.0
2018-02-22T02:13:58.736Z,0.0
2018-02-22T02:15:58.920Z,0.0
2018-02-22T02:16:58.874Z,0.0
2018-02-22T02:17:58.706Z,0.0
2018-02-22T02:18:58.874Z,0.0
2018-02-22T02:19:58.693Z,1.6
2018-02-22T02:20:58.862Z,1.6
2018-02-22T02:21:58.947Z,0.8
2018-02-22T02:22:58.904Z,0.8
2018-02-22T02:23:58.703Z,0.8
2018-02-22T02:24:58.932Z,2.5
2018-02-22T02:25:58.896Z,2.5
2018-02-22T02:26:58.905Z,0.8
2018-02-22T02:27:59.078Z,0.8
2018-02-22T02:29:58.908Z,2.5
2018-02-22T02:30:58.697Z,2.5
2018-02-22T02:31:58.729Z,3.6
2018-02-22T02:32:58.728Z,3.6
2018-02-22T02:33:58.906Z,3.6
2018-02-22T02:34:58.756Z,4.1
2018-02-22T02:35:58.940Z,4.1
2018-02-22T02:36:58.976Z,1.9
2018-02-22T02:37:59.521Z,1.9
2018-02-22T02:38:58.987Z,1.9
2018-02-22T02:39:58.852Z,0.0
2018-02-22T02:40:58.782Z,0.0
2018-02-22T02:41:58.777Z,3.3
2018-02-22T02:42:58.803Z,3.3
2018-02-22T02:43:58.760Z,3.3
2018-02-22T02:44:58.998Z,0.0
2018-02-22T02:45:59.181Z,0.0
2018-02-22T02:46:58.954Z,1.1
2018-02-22T02:48:58.794Z,1.1
2018-02-22T02:49:58.832Z,3.0
2018-02-22T02:50:59.028Z,3.0
2018-02-22T02:51:59.091Z,3.0
2018-02-22T02:52:58.836Z,13.8
2018-02-22T02:53:58.792Z,13.8
2018-02-22T02:54:58.841Z,3.6
2018-02-22T02:55:58.851Z,3.6
2018-02-22T02:56:58.807Z,3.6
2018-02-22T02:57:58.970Z,3.6
2018-02-22T02:58:58.798Z,3.6
2018-02-22T02:59:58.987Z,1.6
2018-02-22T03:00:59.078Z,1.6
2018-02-22T03:01:58.941Z,1.6
2018-02-22T03:02:58.981Z,1.1
2018-02-22T03:03:58.961Z,1.1
2018-02-22T03:04:58.813Z,0.5
2018-02-22T03:05:58.745Z,0.5
2018-02-22T03:07:02.860Z,0.5
2018-02-22T03:08:00.444Z,1.3
2018-02-22T03:09:02.872Z,1.3
2018-02-22T03:09:58.824Z,0.8
2018-02-22T03:10:59.001Z,0.8
2018-02-22T03:11:59.033Z,0.8
2018-02-22T03:12:59.626Z,1.1
2018-02-22T03:14:00.059Z,1.1
2018-02-22T03:14:59.175Z,3.3
2018-02-22T03:16:00.219Z,3.3
2018-02-22T03:17:01.712Z,3.3
2018-02-22T03:18:00.904Z,1.6
2018-02-22T03:18:59.852Z,1.6
2018-02-22T03:19:59.464Z,1.6
2018-02-22T03:20:59.205Z,1.6
2018-02-22T03:21:59.144Z,1.6
2018-02-22T03:22:59.390Z,1.1
2018-02-22T03:24:06.909Z,1.1
2018-02-22T03:25:10.733Z,1.1
2018-02-22T03:26:01.148Z,0.8
2018-02-22T03:26:58.999Z,0.8
2018-02-22T03:27:59.022Z,1.1
2018-02-22T03:28:58.909Z,1.1
2018-02-22T03:29:58.821Z,1.1
2018-02-22T03:30:58.971Z,1.1
2018-02-22T03:31:58.839Z,1.1
2018-02-22T03:32:58.938Z,2.5
2018-02-22T03:33:58.991Z,2.5
2018-02-22T03:34:58.817Z,2.5
2018-02-22T03:35:59.018Z,3.3
2018-02-22T03:36:58.982Z,3.3
2018-02-22T03:37:58.813Z,3.3
2018-02-22T03:38:58.799Z,3.3
2018-02-22T03:39:59.090Z,3.3
2018-02-22T03:40:58.877Z,0.0
2018-02-22T03:41:58.836Z,0.0
2018-02-22T03:42:58.844Z,1.9
2018-02-22T03:45:59.038Z,0.5
2018-02-22T03:46:58.825Z,0.5
2018-02-22T03:47:58.837Z,3.6
2018-02-22T03:48:58.833Z,3.6
2018-02-22T03:50:59.038Z,4.4
2018-02-22T03:51:58.879Z,4.4
2018-02-22T03:52:59.039Z,4.4
2018-02-22T03:53:59.037Z,2.2
2018-02-22T03:54:59.094Z,2.2
2018-02-22T03:55:59.051Z,1.3
2018-02-22T03:56:59.053Z,1.3
2018-02-22T03:57:59.098Z,1.3
2018-02-22T03:58:59.330Z,0.8
2018-02-22T03:59:59.145Z,0.8
2018-02-22T04:01:58.919Z,0.0
2018-02-22T04:02:59.222Z,0.0
2018-02-22T04:03:58.978Z,0.5
2018-02-22T04:04:58.936Z,0.5
2018-02-22T04:05:59.089Z,0.5
2018-02-22T04:06:59.134Z,0.5
2018-02-22T04:07:59.160Z,0.5
2018-02-22T04:08:59.000Z,1.9
2018-02-22T04:09:58.980Z,1.9
2018-02-22T04:10:59.800Z,12.2
2018-02-22T04:12:59.158Z,12.2
2018-02-22T04:13:59.108Z,2.2
2018-02-22T04:14:58.936Z,2.2
2018-02-22T04:16:58.989Z,0.8
2018-02-22T04:17:59.087Z,0.8
2018-02-22T04:18:58.943Z,0.8
2018-02-22T04:19:59.088Z,0.8
2018-02-22T04:20:58.896Z,0.8
2018-02-22T04:21:59.156Z,2.5
2018-02-22T04:22:59.170Z,2.5
2018-02-22T04:23:59.211Z,3.6
2018-02-22T04:24:59.131Z,3.6
2018-02-22T04:25:59.171Z,3.6
2018-02-22T04:26:59.001Z,3.0
2018-02-22T04:27:59.128Z,3.0
2018-02-22T04:29:01.159Z,2.5
2018-02-22T04:29:59.055Z,2.5
2018-02-22T04:30:59.141Z,2.5
2018-02-22T04:31:59.161Z,0.5
2018-02-22T04:32:59.044Z,0.5
2018-02-22T04:33:59.317Z,0.8
2018-02-22T04:34:59.165Z,0.8
2018-02-22T04:35:59.139Z,0.8
2018-02-22T04:36:59.191Z,0.8
2018-02-22T04:37:59.197Z,0.8
2018-02-22T04:38:58.987Z,4.7
2018-02-22T04:39:59.213Z,4.7
2018-02-22T04:40:59.152Z,4.7
2018-02-22T04:42:59.155Z,0.2
2018-02-22T04:43:59.571Z,0.0
2018-02-22T04:44:59.185Z,0.0
2018-02-22T04:45:59.151Z,0.0
2018-02-22T04:46:59.271Z,1.1
2018-02-22T04:47:59.174Z,1.1
2018-02-22T04:48:59.027Z,1.9
2018-02-22T04:49:59.151Z,1.9
2018-02-22T04:51:59.126Z,0.0
2018-02-22T04:52:59.140Z,0.0
2018-02-22T04:53:59.144Z,0.0
2018-02-22T04:55:59.001Z,1.6
2018-02-22T04:56:59.015Z,2.2
2018-02-22T04:57:58.965Z,2.2
2018-02-22T04:58:58.993Z,2.2
2018-02-22T04:59:59.194Z,2.2
2018-02-22T05:00:58.982Z,2.2
2018-02-22T05:01:59.154Z,0.8
2018-02-22T05:02:59.058Z,0.8
2018-02-22T05:03:59.183Z,0.8
2018-02-22T05:04:59.092Z,1.1
2018-02-22T05:05:59.163Z,1.1
2018-02-22T05:06:59.197Z,1.6
2018-02-22T05:07:59.018Z,1.6
2018-02-22T05:08:59.124Z,1.6
2018-02-22T05:09:59.328Z,0.5
2018-02-22T05:10:59.078Z,0.5
2018-02-22T05:11:59.667Z,1.1
2018-02-22T05:13:00.450Z,1.1
2018-02-22T05:13:59.245Z,1.1
2018-02-22T05:14:59.104Z,3.0
2018-02-22T05:15:59.311Z,3.0
2018-02-22T05:16:59.091Z,0.8
2018-02-22T05:17:59.096Z,0.8
2018-02-22T05:18:59.275Z,0.8
2018-02-22T05:19:59.389Z,2.7
2018-02-22T05:20:59.290Z,2.7
2018-02-22T05:21:59.306Z,2.7
2018-02-22T05:22:59.272Z,2.5
2018-02-22T05:23:59.274Z,2.5
2018-02-22T05:24:59.081Z,4.7
2018-02-22T05:25:59.129Z,4.7
2018-02-22T05:26:59.111Z,4.7
2018-02-22T05:27:59.359Z,2.7
2018-02-22T05:28:59.304Z,2.7
2018-02-22T05:29:59.325Z,5.8
2018-02-22T05:30:59.278Z,5.8
2018-02-22T05:31:59.160Z,5.8
2018-02-22T05:32:59.114Z,2.2
2018-02-22T05:33:59.154Z,2.2
2018-02-22T05:34:59.317Z,2.7
2018-02-22T05:35:59.119Z,2.7
2018-02-22T05:36:59.321Z,2.7
2018-02-22T05:37:59.129Z,5.0
2018-02-22T05:38:59.047Z,5.0
2018-02-22T05:39:59.114Z,5.0
2018-02-22T05:40:59.146Z,5.0
2018-02-22T05:41:59.323Z,5.0
2018-02-22T05:42:59.333Z,6.1
2018-02-22T05:43:59.085Z,6.1
2018-02-22T05:44:59.111Z,2.2
2018-02-22T05:45:59.347Z,2.2
2018-02-22T05:46:59.989Z,2.2
2018-02-22T05:47:59.310Z,3.8
2018-02-22T05:48:59.123Z,3.8
2018-02-22T05:49:59.324Z,1.6
2018-02-22T05:50:59.140Z,1.6
2018-02-22T05:51:59.186Z,1.6
2018-02-22T05:52:59.509Z,2.2
2018-02-22T05:53:59.308Z,2.2
2018-02-22T05:55:59.243Z,3.8
2018-02-22T05:57:59.385Z,3.0
2018-02-22T05:58:59.163Z,3.0
2018-02-22T05:59:59.216Z,3.0
2018-02-22T06:00:59.164Z,4.1
2018-02-22T06:01:59.352Z,4.1
2018-02-22T06:02:59.292Z,5.8
2018-02-22T06:03:59.182Z,5.8
2018-02-22T06:04:59.354Z,5.8
2018-02-22T06:05:59.761Z,2.7
2018-02-22T06:06:59.164Z,2.7
2018-02-22T06:07:59.337Z,2.7
2018-02-22T06:08:59.939Z,2.7
2018-02-22T06:09:59.128Z,2.7
2018-02-22T06:10:59.721Z,1.9
2018-02-22T06:12:00.147Z,1.9
2018-02-22T06:12:59.372Z,5.5
2018-02-22T06:14:59.179Z,5.5
2018-02-22T06:15:59.209Z,15.0
2018-02-22T06:16:59.204Z,15.0
2018-02-22T06:17:59.245Z,7.5
2018-02-22T06:19:00.059Z,7.5
2018-02-22T06:19:59.217Z,7.5
2018-02-22T06:20:59.413Z,7.5
2018-02-22T06:21:59.160Z,7.5
2018-02-22T06:22:59.419Z,7.5
2018-02-22T06:23:59.414Z,5.5
2018-02-22T06:24:59.207Z,5.5
2018-02-22T06:25:59.194Z,6.6
2018-02-22T06:26:59.230Z,6.6
2018-02-22T06:27:59.852Z,6.6
2018-02-22T06:28:59.993Z,4.7
2018-02-22T06:29:59.361Z,4.7
2018-02-22T06:30:59.309Z,1.6
2018-02-22T06:31:59.348Z,1.6
2018-02-22T06:32:59.336Z,1.6
2018-02-22T06:33:59.341Z,6.1
2018-02-22T06:34:59.344Z,6.1
2018-02-22T06:35:59.150Z,5.8
2018-02-22T06:36:59.188Z,5.8
2018-02-22T06:37:59.358Z,5.8
2018-02-22T06:38:59.323Z,23.8
2018-02-22T06:39:59.437Z,23.8
2018-02-22T06:40:59.375Z,6.1
2018-02-22T06:41:59.350Z,6.1
2018-02-22T06:42:59.432Z,6.1
2018-02-22T06:43:59.377Z,3.0
2018-02-22T06:44:59.358Z,3.0
2018-02-22T06:45:59.225Z,4.1
2018-02-22T06:46:59.366Z,4.1
2018-02-22T06:47:59.206Z,4.1
2018-02-22T06:48:59.199Z,7.2
2018-02-22T06:50:59.210Z,5.0
2018-02-22T06:51:59.169Z,5.0
2018-02-22T06:52:59.292Z,5.0
2018-02-22T06:54:59.412Z,6.9
2018-02-22T06:55:59.369Z,6.9
2018-02-22T06:56:59.457Z,6.1
2018-02-22T06:57:59.246Z,6.1
2018-02-22T06:58:59.179Z,6.3
2018-02-22T06:59:59.385Z,6.3
2018-02-22T07:00:59.450Z,6.3
2018-02-22T07:01:59.399Z,6.3
2018-02-22T07:02:59.228Z,6.3
2018-02-22T07:03:59.400Z,5.5
2018-02-22T07:05:59.238Z,5.5
2018-02-22T07:07:59.397Z,3.6
2018-02-22T07:08:59.376Z,6.3
2018-02-22T07:09:59.301Z,6.3
2018-02-22T07:10:59.325Z,6.3
2018-02-22T07:12:01.584Z,7.7
2018-02-22T07:12:59.445Z,7.7
2018-02-22T07:15:59.305Z,31.3
2018-02-22T07:16:59.272Z,5.2
2018-02-22T07:17:59.294Z,5.2
2018-02-22T07:19:00.469Z,8.8
2018-02-22T07:19:59.307Z,8.8
2018-02-22T07:20:59.496Z,8.8
2018-02-22T07:22:00.090Z,8.0
2018-02-22T07:22:59.479Z,8.0
2018-02-22T07:23:59.501Z,8.0
2018-02-22T07:24:59.489Z,5.0
2018-02-22T07:25:59.479Z,5.0
2018-02-22T07:26:59.288Z,5.8
2018-02-22T07:27:59.286Z,5.8
2018-02-22T07:28:59.543Z,5.8
2018-02-22T07:29:59.583Z,4.1
2018-02-22T07:30:59.568Z,4.1
2018-02-22T07:31:59.532Z,3.8
2018-02-22T07:32:59.482Z,3.8
2018-02-22T07:33:59.318Z,3.8
2018-02-22T07:34:59.296Z,6.1
2018-02-22T07:35:59.500Z,6.1
2018-02-22T07:36:59.286Z,3.8
2018-02-22T07:37:59.463Z,3.8
2018-02-22T07:38:59.324Z,3.8
2018-02-22T07:39:59.285Z,27.7
2018-02-22T07:40:59.350Z,27.7
2018-02-22T07:41:59.279Z,27.7
2018-02-22T07:42:59.420Z,27.7
2018-02-22T07:43:59.337Z,27.7
2018-02-22T07:44:59.492Z,4.4
2018-02-22T07:45:59.551Z,4.4
2018-02-22T07:46:59.383Z,6.1
2018-02-22T07:47:59.431Z,6.1
2018-02-22T07:48:59.498Z,6.1
2018-02-22T07:50:00.547Z,3.6
2018-02-22T07:50:59.555Z,3.6
2018-02-22T07:51:59.399Z,6.3
2018-02-22T07:53:59.323Z,6.3
2018-02-22T07:54:59.373Z,7.5
2018-02-22T07:55:59.578Z,7.5
2018-02-22T07:56:59.443Z,7.5
2018-02-22T07:57:59.615Z,5.2
2018-02-22T07:58:59.404Z,5.2
2018-02-22T08:00:00.142Z,4.7
2018-02-22T08:00:59.625Z,4.7
2018-02-22T08:02:59.431Z,7.5
2018-02-22T08:03:59.405Z,7.5
2018-02-22T08:04:59.489Z,6.9
2018-02-22T08:05:59.546Z,6.9
2018-02-22T08:06:59.541Z,6.9
2018-02-22T08:08:01.630Z,5.8
2018-02-22T08:08:59.405Z,5.8
2018-02-22T08:09:59.589Z,6.3
2018-02-22T08:10:59.621Z,6.3
2018-02-22T08:11:59.624Z,6.3
2018-02-22T08:12:59.434Z,4.7
2018-02-22T08:14:00.119Z,4.7
2018-02-22T08:15:00.905Z,5.5
2018-02-22T08:16:59.888Z,5.5
2018-02-22T08:18:11.537Z,6.9
2018-02-22T08:19:12.819Z,6.9
2018-02-22T08:21:00.584Z,3.6
2018-02-22T08:22:01.319Z,3.6
2018-02-22T08:23:01.651Z,3.6
2018-02-22T08:23:59.553Z,3.6
2018-02-22T08:25:00.368Z,3.6
2018-02-22T08:26:00.672Z,3.0
2018-02-22T08:27:03.213Z,3.0
2018-02-22T08:28:11.962Z,6.1
2018-02-22T08:29:24.888Z,6.1
2018-02-22T08:29:59.620Z,6.1
2018-02-22T08:30:59.418Z,3.0
2018-02-22T08:32:02.138Z,3.0
2018-02-22T08:34:01.763Z,1.9
2018-02-22T08:35:00.468Z,1.9
2018-02-22T08:35:59.491Z,3.8
2018-02-22T08:37:00.121Z,3.8
2018-02-22T08:38:00.676Z,3.3
2018-02-22T08:38:59.644Z,3.3
2018-02-22T08:40:03.695Z,3.3
2018-02-22T08:40:59.647Z,2.7
2018-02-22T08:42:02.147Z,2.7
2018-02-22T08:43:00.708Z,6.1
2018-02-22T08:43:59.475Z,6.1
2018-02-22T08:45:01.062Z,6.1
2018-02-22T08:46:00.919Z,6.6
2018-02-22T08:48:02.008Z,7.2
2018-02-22T08:49:00.538Z,7.2
2018-02-22T08:50:03.997Z,7.2
2018-02-22T08:51:04.502Z,3.0
2018-02-22T08:53:00.561Z,3.0
2018-02-22T08:54:14.109Z,5.0
2018-02-22T08:54:59.549Z,5.0
2018-02-22T08:55:59.726Z,5.5
2018-02-22T08:57:04.447Z,5.5
2018-02-22T08:58:00.545Z,5.5
2018-02-22T08:59:00.165Z,5.2
2018-02-22T08:59:59.509Z,5.2
2018-02-22T09:00:59.722Z,5.2
2018-02-22T09:01:59.853Z,5.2
2018-02-22T09:02:59.569Z,5.2
2018-02-22T09:04:00.879Z,5.2
2018-02-22T09:05:00.776Z,5.2
2018-02-22T09:06:00.859Z,1.9
2018-02-22T09:07:00.200Z,1.9
2018-02-22T09:08:00.244Z,1.9
2018-02-22T09:09:00.960Z,2.5
2018-02-22T09:09:59.599Z,2.5
2018-02-22T09:11:00.693Z,5.0
2018-02-22T09:12:03.260Z,5.0
2018-02-22T09:13:01.567Z,5.0
2018-02-22T09:14:00.720Z,4.4
2018-02-22T09:15:03.135Z,4.4
2018-02-22T09:17:02.440Z,2.2
2018-02-22T09:18:02.567Z,2.2
2018-02-22T09:19:00.911Z,3.0
2018-02-22T09:20:00.324Z,3.0
2018-02-22T09:21:00.326Z,5.5
2018-02-22T09:21:59.898Z,5.5
2018-02-22T09:23:00.411Z,5.5
2018-02-22T09:24:02.326Z,5.2
2018-02-22T09:25:00.315Z,5.2
2018-02-22T09:26:01.377Z,5.2
2018-02-22T09:27:01.319Z,6.1
2018-02-22T09:28:03.405Z,6.1
2018-02-22T09:29:00.724Z,3.0
2018-02-22T09:30:00.323Z,3.0
2018-02-22T09:31:00.257Z,3.0
2018-02-22T09:32:59.761Z,5.8
2018-02-22T09:34:01.037Z,8.6
2018-02-22T09:35:02.703Z,8.6
2018-02-22T09:37:00.286Z,21.3
2018-02-22T09:38:03.259Z,21.3
2018-02-22T09:39:05.747Z,5.2
2018-02-22T09:40:02.159Z,5.2
2018-02-22T09:40:59.815Z,5.2
2018-02-22T09:43:00.994Z,6.1
2018-02-22T09:44:04.122Z,6.1
2018-02-22T09:45:01.185Z,6.1
2018-02-22T09:46:09.855Z,6.1
2018-02-22T09:48:01.767Z,3.6
2018-02-22T09:49:13.337Z,4.1
2018-02-22T09:50:04.091Z,4.1
2018-02-22T09:51:03.869Z,4.1
2018-02-22T09:52:03.510Z,6.1
2018-02-22T09:53:06.367Z,6.1
2018-02-22T09:54:06.784Z,6.1
2018-02-22T09:55:13.834Z,7.5
2018-02-22T09:56:02.016Z,7.5
2018-02-22T09:57:10.344Z,7.2
2018-02-22T09:58:05.039Z,7.2
2018-02-22T09:59:33.222Z,7.2
2018-02-22T10:01:16.504Z,8.0
2018-02-22T10:02:29.065Z,9.7
2018-02-22T10:03:23.425Z,9.7
2018-02-22T10:04:12.274Z,5.8
2018-02-22T10:05:12.280Z,5.8
2018-02-22T10:06:15.854Z,5.8
2018-02-22T10:07:51.369Z,8.8
2018-02-22T10:08:15.360Z,8.8
2018-02-22T10:09:23.363Z,8.8
2018-02-22T10:10:20.284Z,5.5
2018-02-22T10:11:12.256Z,5.5
2018-02-22T10:12:12.249Z,6.1
2018-02-22T10:13:12.041Z,6.1
2018-02-22T10:14:12.022Z,6.1
2018-02-22T10:15:12.257Z,3.6
2018-02-22T10:16:12.045Z,3.6
2018-02-22T10:17:12.273Z,23.8
2018-02-22T10:18:18.423Z,23.8
2018-02-22T10:19:26.676Z,23.8
2018-02-22T10:20:23.354Z,6.9
2018-02-22T10:21:20.557Z,6.9
2018-02-22T10:24:13.235Z,4.4
2018-02-22T10:25:13.369Z,4.4
2018-02-22T10:26:12.560Z,4.4
2018-02-22T10:27:12.773Z,5.5
2018-02-22T10:29:12.976Z,5.5
2018-02-22T10:30:12.039Z,8.0
2018-02-22T10:31:12.243Z,8.0
2018-02-22T10:32:12.683Z,9.7
2018-02-22T10:33:12.137Z,9.7
2018-02-22T10:34:13.324Z,9.7
2018-02-22T10:35:17.388Z,7.2
2018-02-22T10:36:12.175Z,7.2
2018-02-22T10:37:13.227Z,7.2
2018-02-22T10:38:13.371Z,6.3
2018-02-22T10:39:12.861Z,6.3
2018-02-22T10:40:13.224Z,6.6
2018-02-22T10:41:16.671Z,6.6
2018-02-22T10:42:12.081Z,6.6
2018-02-22T10:43:17.367Z,7.2
2018-02-22T10:44:12.231Z,7.2
2018-02-22T10:45:12.918Z,4.1
2018-02-22T10:46:14.701Z,4.1
2018-02-22T10:47:13.360Z,4.1
2018-02-22T10:48:14.173Z,30.8
2018-02-22T10:50:13.215Z,30.8
2018-02-22T10:51:14.154Z,30.8
2018-02-22T10:52:13.616Z,30.8
2018-02-22T10:53:12.095Z,7.7
2018-02-22T10:54:14.205Z,7.7
2018-02-22T10:55:14.630Z,10.8
2018-02-22T10:56:15.865Z,10.8
2018-02-22T10:57:12.690Z,10.8
2018-02-22T10:58:14.511Z,7.2
2018-02-22T10:59:14.587Z,7.2
2018-02-22T11:00:14.626Z,6.1
2018-02-22T11:01:16.671Z,6.1
2018-02-22T11:02:18.811Z,6.1
2018-02-22T11:04:17.453Z,6.6
2018-02-22T11:05:15.516Z,6.6
2018-02-22T11:07:14.746Z,6.6
2018-02-22T11:08:16.077Z,27.7
2018-02-22T11:09:18.555Z,27.7
2018-02-22T11:10:16.044Z,27.7
2018-02-22T11:11:15.167Z,5.5
2018-02-22T11:12:22.570Z,5.5
2018-02-22T11:13:19.008Z,4.1
2018-02-22T11:14:21.135Z,4.1
2018-02-22T11:15:16.233Z,4.1
2018-02-22T11:16:29.457Z,7.5
2018-02-22T11:17:21.510Z,7.5
2018-02-22T11:18:19.381Z,7.7
2018-02-22T11:19:33.674Z,7.7
2018-02-22T11:21:19.941Z,6.9
2018-02-22T11:22:14.245Z,6.9
2018-02-22T11:23:12.064Z,6.1
2018-02-22T11:25:12.104Z,6.1
2018-02-22T11:26:13.311Z,5.8
2018-02-22T11:28:12.943Z,7.5
2018-02-22T11:29:12.212Z,7.5
2018-02-22T11:30:23.063Z,7.5
2018-02-22T11:31:12.113Z,7.5
2018-02-22T11:33:12.105Z,8.3
2018-02-22T11:34:12.146Z,8.3
2018-02-22T11:35:12.329Z,8.3
2018-02-22T11:36:12.338Z,5.2
2018-02-22T11:37:13.421Z,5.2
2018-02-22T11:38:12.142Z,5.2
2018-02-22T11:39:14.718Z,25.5
2018-02-22T11:40:13.510Z,25.5
2018-02-22T11:41:12.165Z,9.1
2018-02-22T11:42:13.383Z,9.1
2018-02-22T11:43:12.127Z,9.1
2018-02-22T11:44:13.533Z,8.8
2018-02-22T11:45:13.105Z,8.8
2018-02-22T11:46:13.793Z,8.8
2018-02-22T11:47:13.022Z,8.8
2018-02-22T11:48:17.916Z,8.8
2018-02-22T11:49:12.155Z,10.5
2018-02-22T11:50:14.059Z,10.5
2018-02-22T11:51:12.736Z,9.4
2018-02-22T11:52:14.386Z,9.4
2018-02-22T11:53:12.209Z,9.4
2018-02-22T11:54:12.349Z,6.6
2018-02-22T11:55:12.171Z,6.6
2018-02-22T11:56:12.208Z,4.1
2018-02-22T11:57:12.950Z,4.1
2018-02-22T11:58:12.270Z,4.1
2018-02-22T11:59:12.391Z,5.0
2018-02-22T12:00:12.203Z,5.0
2018-02-22T12:01:12.326Z,6.3
2018-02-22T12:02:12.358Z,6.3
2018-02-22T12:03:12.404Z,6.3
2018-02-22T12:04:12.396Z,5.2
2018-02-22T12:06:12.370Z,6.6
2018-02-22T12:07:12.198Z,6.6
2018-02-22T12:08:12.186Z,6.6
2018-02-22T12:09:12.212Z,8.8
2018-02-22T12:12:12.402Z,5.0
2018-02-22T12:14:12.252Z,6.1
2018-02-22T12:15:12.396Z,6.1
2018-02-22T12:16:12.409Z,6.1
2018-02-22T12:17:12.222Z,4.4
2018-02-22T12:18:12.226Z,4.4
2018-02-22T12:19:12.404Z,5.0
2018-02-22T12:20:12.284Z,5.0
2018-02-22T12:21:12.223Z,5.0
2018-02-22T12:22:12.439Z,5.5
2018-02-22T12:23:12.402Z,5.5
2018-02-22T12:24:12.402Z,8.3
2018-02-22T12:25:13.040Z,8.3
2018-02-22T12:26:12.868Z,8.3
2018-02-22T12:27:12.233Z,8.3
2018-02-22T12:28:12.416Z,8.3
2018-02-22T12:29:12.546Z,5.2
2018-02-22T12:30:12.221Z,5.2
2018-02-22T12:31:12.477Z,5.2
2018-02-22T12:32:12.540Z,8.8
2018-02-22T12:33:12.481Z,8.8
2018-02-22T12:34:14.451Z,6.3
2018-02-22T12:36:12.477Z,6.3
2018-02-22T12:37:13.112Z,5.0
2018-02-22T12:38:12.463Z,5.0
2018-02-22T12:39:13.192Z,5.0
2018-02-22T12:40:12.941Z,2.2
2018-02-22T12:42:12.315Z,3.0
2018-02-22T12:43:12.271Z,3.0
2018-02-22T12:44:13.431Z,3.0
2018-02-22T12:45:13.119Z,30.5
2018-02-22T12:46:12.597Z,30.5
2018-02-22T12:47:12.313Z,8.6
2018-02-22T12:48:12.297Z,8.6
2018-02-22T12:49:12.773Z,8.6
2018-02-22T12:50:12.240Z,7.2
2018-02-22T12:51:12.277Z,7.2
2018-02-22T12:52:12.459Z,5.0
2018-02-22T12:53:12.495Z,5.0
2018-02-22T12:54:12.296Z,5.0
2018-02-22T12:55:12.205Z,5.2
2018-02-22T12:56:12.411Z,5.2
2018-02-22T12:57:12.470Z,4.7
2018-02-22T12:58:12.447Z,4.7
2018-02-22T12:59:12.425Z,4.7
2018-02-22T13:01:12.238Z,6.9
2018-02-22T13:02:12.268Z,6.3
2018-02-22T13:03:12.242Z,6.3
2018-02-22T13:04:12.242Z,6.3
2018-02-22T13:05:12.233Z,9.1
2018-02-22T13:06:12.579Z,9.1
2018-02-22T13:07:12.502Z,9.1
2018-02-22T13:08:12.488Z,9.1
2018-02-22T13:09:12.282Z,9.1
2018-02-22T13:10:12.288Z,7.7
2018-02-22T13:11:12.302Z,7.7
2018-02-22T13:12:12.475Z,7.7
2018-02-22T13:16:12.472Z,6.1
2018-02-22T13:17:12.468Z,6.1
2018-02-22T13:19:12.323Z,5.5
2018-02-22T13:20:12.329Z,5.0
2018-02-22T13:21:12.308Z,5.0
2018-02-22T13:22:12.330Z,5.0
2018-02-22T13:34:02.853Z,0.0
2018-02-22T13:35:02.931Z,0.0
2018-02-22T13:36:02.644Z,0.0
2018-02-22T13:37:02.873Z,0.0
2018-02-22T13:39:02.666Z,0.0
2018-02-22T13:40:02.646Z,0.0
2018-02-22T13:41:04.587Z,0.0
2018-02-22T13:42:02.608Z,0.0
2018-02-22T13:43:02.992Z,0.0
2018-02-22T13:44:02.588Z,0.0
2018-02-22T13:45:03.000Z,6.9
2018-02-22T13:48:02.696Z,4.7
2018-02-22T13:49:03.460Z,4.7
2018-02-22T13:50:03.016Z,4.1
2018-02-22T13:51:02.681Z,4.1
2018-02-22T13:52:02.720Z,4.1
2018-02-22T13:53:02.954Z,5.5
2018-02-22T13:54:03.752Z,5.5
2018-02-22T13:55:02.757Z,5.5
2018-02-22T13:56:02.701Z,5.5
2018-02-22T13:57:02.703Z,5.5
2018-02-22T13:58:02.705Z,7.2
2018-02-22T13:59:02.667Z,7.2
2018-02-22T14:00:02.730Z,8.8
2018-02-22T14:01:02.741Z,8.8
2018-02-22T14:02:02.993Z,8.8
2018-02-22T14:03:11.440Z,6.6
2018-02-22T14:04:05.714Z,6.6
2018-02-22T14:05:06.642Z,6.6
2018-02-22T14:06:15.862Z,5.8
2018-02-22T14:07:08.776Z,5.8
2018-02-22T14:08:10.564Z,5.5
2018-02-22T14:10:12.248Z,5.5
2018-02-22T14:11:11.956Z,29.7
2018-02-22T14:12:05.669Z,29.7
2018-02-22T14:13:10.332Z,6.1
2018-02-22T14:15:08.224Z,6.1
2018-02-22T14:17:09.975Z,8.3
2018-02-22T14:18:06.345Z,7.2
2018-02-22T14:19:04.918Z,7.2
2018-02-22T14:20:03.113Z,7.2
2018-02-22T14:21:03.783Z,5.8
2018-02-22T14:22:09.252Z,5.8
2018-02-22T14:23:05.027Z,5.8
2018-02-22T14:24:05.212Z,5.8
2018-02-22T14:26:05.470Z,3.6
2018-02-22T14:27:06.716Z,3.6
2018-02-22T14:28:07.288Z,6.1
2018-02-22T14:29:02.992Z,6.1
2018-02-22T14:30:03.897Z,6.1
2018-02-22T14:31:05.001Z,7.5
2018-02-22T14:32:03.927Z,7.5
2018-02-22T14:33:05.780Z,7.5
2018-02-22T14:34:02.816Z,8.0
2018-02-22T14:35:02.791Z,8.0
2018-02-22T14:36:02.874Z,21.1
2018-02-22T14:37:03.069Z,21.1
2018-02-22T14:38:02.848Z,21.1
2018-02-22T14:39:02.875Z,8.8
2018-02-22T14:40:04.179Z,8.8
2018-02-22T14:41:02.803Z,7.5
2018-02-22T14:42:02.820Z,7.5
2018-02-22T14:44:02.811Z,7.2
2018-02-22T14:45:02.814Z,7.2
2018-02-22T14:46:03.132Z,5.5
2018-02-22T14:47:03.057Z,5.5
2018-02-22T14:48:05.076Z,5.5
2018-02-22T14:49:05.980Z,4.4
2018-02-22T14:50:03.392Z,4.4
2018-02-22T14:51:04.850Z,8.0
2018-02-22T14:52:03.143Z,8.0
2018-02-22T14:53:02.882Z,8.0
2018-02-22T14:54:03.076Z,3.8
2018-02-22T14:56:03.098Z,6.9
2018-02-22T14:57:03.042Z,6.9
2018-02-22T14:58:03.338Z,6.9
2018-02-22T14:59:06.868Z,4.1
2018-02-22T15:00:04.606Z,4.1
2018-02-22T15:01:07.961Z,7.2
2018-02-22T15:02:09.085Z,7.2
2018-02-22T15:03:11.383Z,7.2
2018-02-22T15:04:03.453Z,7.2
2018-02-22T15:05:03.779Z,7.2
2018-02-22T15:06:03.105Z,7.2
2018-02-22T15:07:02.971Z,6.6
2018-02-22T15:08:03.241Z,6.6
2018-02-22T15:09:02.869Z,9.4